KMCE/MCE METAR and TAF weather

Enter ICAO airport designator
Station Type Date Time Source
KMCE METAR 2020/04/06 11:01 UTC NOAA

KMCE 061101Z AUTO 18004KT 1 3/4SM BR CLR 04/04 A2979 RMK AO2 T00440039


Station Type Date Time Source
KMCE Decoded METAR 2020/04/06 11:01 UTC NOAA

MERCED MUNICIPAL AIRPORT, CA, United States (KMCE) 37-17N 120-30W 47M
Apr 06, 2020 - 07:01 AM EDT / 2020.04.06 1101 UTC
Wind: from the S (180 degrees) at 5 MPH (4 KT):0
Visibility: 1 3/4 mile(s):0
Sky conditions: clear
Weather: mist
Temperature: 39.9 F (4.4 C)
Dew Point: 39.0 F (3.9 C)
Relative Humidity: 96%
Pressure (altimeter): 29.79 in. Hg (1008 hPa)
ob: KMCE 061101Z AUTO 18004KT 1 3/4SM BR CLR 04/04 A2979 RMK AO2 T00440039
cycle: 11

Station Type Date Time Source
KMCE TAF 2020/04/06 06:58 UTC NOAA

TAF
AMD KMCE 060558Z 0606/0706 28003KT 6SM -RA BR SCT029 OVC050
TEMPO 0606/0610 3SM RA BR BKN029 OVC050
FM061100 15005KT P6SM SCT029 OVC050
TEMPO 0619/0623 5SM SHRA BKN029 OVC050

Example: see airport list